Time,TemperatureF,DewpointF,PressureIn,WindDirection,WindDirectionDegrees,WindSpeedMPH,WindSpeedGustMPH,Humidity,HourlyPrecipIn,Conditions,Clouds,dailyrainin,SoftwareType,DateUTC
2013-01-21 00:01:00,1.8,-8.6,30.31,WNW,292,5.8,6.3,61,0.00,CLR,,0.00,WeatherDisplay:10.37,2013-01-21 06:01:00,
2013-01-21 00:06:00,1.6,-9.1,30.31,WNW,292,6.9,6.9,60,0.00,CLR,,0.00,WeatherDisplay:10.37,2013-01-21 06:06:00,
2013-01-21 00:11:00,1.6,-9.1,30.31,WNW,292,6.9,6.9,60,0.00,CLR,,0.00,WeatherDisplay:10.37,2013-01-21 06:11:00,
2013-01-21 00:16:00,1.2,-9.5,30.31,WNW,292,7.3,7.8,60,0.00,CLR,,0.00,WeatherDisplay:10.37,2013-01-21 06:16:00,
2013-01-21 00:21:00,0.9,-9.8,30.31,WNW,292,5.7,5.7,60,0.00,CLR,,0.00,WeatherDisplay:10.37,2013-01-21 06:21:00,
2013-01-21 00:26:00,0.5,-10.1,30.30,West,270,8.1,8.4,60,0.00,CLR,,0.00,WeatherDisplay:10.37,2013-01-21 06:26:00,
2013-01-21 00:31:00,0.5,-10.1,30.31,West,270,7.3,7.3,60,0.00,CLR,,0.00,WeatherDisplay:10.37,2013-01-21 06:31:00,
2013-01-21 00:36:00,0.9,-9.8,30.31,WNW,292,6.9,6.9,60,0.00,CLR,,0.00,WeatherDisplay:10.37,2013-01-21 06:36:00,
2013-01-21 00:41:00,0.7,-10.0,30.31,WNW,292,8.1,8.4,60,0.00,CLR,,0.00,WeatherDisplay:10.37,2013-01-21 06:41:00,
2013-01-21 00:46:00,0.5,-10.1,30.31,WNW,292,7.3,7.3,60,0.00,CLR,,0.00,WeatherDisplay:10.37,2013-01-21 06:46:00,
2013-01-21 00:51:00,0.5,-10.1,30.31,WNW,292,8.1,8.1,60,0.00,CLR,,0.00,WeatherDisplay:10.37,2013-01-21 06:51:00,
2013-01-21 00:56:00,0.1,-10.5,30.31,West,270,5.1,5.5,60,0.00,CLR,,0.00,WeatherDisplay:10.37,2013-01-21 06:56:00,
2013-01-21 01:01:00,-0.2,-10.8,30.31,WNW,292,7.3,7.8,60,0.00,CLR,,0.00,WeatherDisplay:10.37,2013-01-21 07:01:00,
2013-01-21 01:06:00,-0.4,-11.0,30.31,NW,315,7.3,7.8,60,0.00,CLR,,0.00,WeatherDisplay:10.37,2013-01-21 07:06:00,
2013-01-21 01:11:00,-0.2,-10.8,30.31,West,270,9.2,9.2,60,0.00,CLR,,0.00,WeatherDisplay:10.37,2013-01-21 07:11:00,
2013-01-21 01:17:00,0.3,-10.0,30.31,NW,315,8.1,8.1,61,0.00,CLR,,0.00,WeatherDisplay:10.37,2013-01-21 07:17:00,
2013-01-21 01:22:00,0.7,-9.3,30.31,WNW,292,8.1,8.1,62,0.00,CLR,,0.00,WeatherDisplay:10.37,2013-01-21 07:22:00,
2013-01-21 01:27:00,1.6,-8.1,30.31,WNW,292,6.9,6.9,63,0.00,CLR,,0.00,WeatherDisplay:10.37,2013-01-21 07:27:00,
2013-01-21 01:33:00,1.8,-7.9,30.30,West,270,5.8,6.1,63,0.00,CLR,,0.00,WeatherDisplay:10.37,2013-01-21 07:33:00,
2013-01-21 01:38:00,2.3,-7.4,30.31,West,270,9.2,9.2,63,0.00,CLR,,0.00,WeatherDisplay:10.37,2013-01-21 07:38:00,
2013-01-21 01:43:00,2.3,-7.4,30.31,WNW,292,5.9,6.4,63,0.00,CLR,,0.00,WeatherDisplay:10.37,2013-01-21 07:43:00,
2013-01-21 01:48:00,2.5,-7.3,30.31,NNW,338,4.6,5.2,63,0.00,CLR,,0.00,WeatherDisplay:10.37,2013-01-21 07:48:00,
2013-01-21 01:53:00,2.7,-7.1,30.32,WNW,292,5.1,5.3,63,0.00,CLR,,0.00,WeatherDisplay:10.37,2013-01-21 07:53:00,
2013-01-21 01:58:00,2.8,-6.9,30.31,NW,315,6.2,6.7,63,0.00,CLR,,0.00,WeatherDisplay:10.37,2013-01-21 07:58:00,
2013-01-21 02:03:00,2.8,-7.2,30.31,NW,315,7.3,7.3,62,0.00,CLR,,0.00,WeatherDisplay:10.37,2013-01-21 08:03:00,
2013-01-21 02:08:00,2.8,-7.2,30.32,WNW,292,2.3,2.3,62,0.00,CLR,,0.00,WeatherDisplay:10.37,2013-01-21 08:08:00,
2013-01-21 02:13:00,2.8,-7.2,30.32,WNW,292,4.6,4.6,62,0.00,CLR,,0.00,WeatherDisplay:10.37,2013-01-21 08:13:00,
2013-01-21 02:18:00,2.7,-7.8,30.31,NW,315,0.0,0.0,61,0.00,CLR,,0.00,WeatherDisplay:10.37,2013-01-21 08:18:00,
2013-01-21 02:23:00,2.5,-7.9,30.32,WNW,292,4.6,4.9,61,0.00,CLR,,0.00,WeatherDisplay:10.37,2013-01-21 08:23:00,
2013-01-21 02:28:00,2.3,-8.1,30.32,WNW,292,3.5,3.7,61,0.00,CLR,,0.00,WeatherDisplay:10.37,2013-01-21 08:28:00,
2013-01-21 02:33:00,2.3,-8.4,30.32,WNW,292,1.1,1.7,60,0.00,CLR,,0.00,WeatherDisplay:10.37,2013-01-21 08:33:00,
2013-01-21 02:38:00,2.3,-8.4,30.32,WNW,292,4.6,4.6,60,0.00,CLR,,0.00,WeatherDisplay:10.37,2013-01-21 08:38:00,
2013-01-21 02:43:00,2.3,-8.4,30.32,NW,315,6.9,7.2,60,0.00,CLR,,0.00,WeatherDisplay:10.37,2013-01-21 08:43:00,
2013-01-21 02:48:00,2.3,-8.4,30.32,West,270,7.3,7.8,60,0.00,CLR,,0.00,WeatherDisplay:10.37,2013-01-21 08:48:00,
2013-01-21 02:53:00,2.1,-8.6,30.32,NW,315,6.9,6.9,60,0.00,CLR,,0.00,WeatherDisplay:10.37,2013-01-21 08:53:00,
2013-01-21 02:58:00,1.8,-9.3,30.32,WNW,292,4.9,5.2,59,0.00,CLR,,0.00,WeatherDisplay:10.37,2013-01-21 08:58:00,
2013-01-21 03:03:00,1.8,-9.3,30.32,NW,315,8.1,8.1,59,0.00,CLR,,0.00,WeatherDisplay:10.37,2013-01-21 09:03:00,
2013-01-21 03:08:00,1.6,-9.5,30.32,WNW,292,4.9,5.2,59,0.00,CLR,,0.00,WeatherDisplay:10.37,2013-01-21 09:08:00,
2013-01-21 03:13:00,1.8,-9.3,30.32,NW,315,5.8,6.1,59,0.00,CLR,,0.00,WeatherDisplay:10.37,2013-01-21 09:13:00,
2013-01-21 03:18:00,1.8,-9.3,30.32,West,270,8.1,8.1,59,0.00,CLR,,0.00,WeatherDisplay:10.37,2013-01-21 09:18:00,
2013-01-21 03:23:00,1.8,-9.3,30.32,NW,315,16.1,16.8,59,0.00,CLR,,0.00,WeatherDisplay:10.37,2013-01-21 09:23:00,
2013-01-21 03:28:00,1.6,-9.5,30.32,NW,315,8.1,9.0,59,0.00,CLR,,0.00,WeatherDisplay:10.37,2013-01-21 09:28:00,
2013-01-21 03:33:00,1.6,-9.5,30.32,NNW,338,9.2,9.7,59,0.00,CLR,,0.00,WeatherDisplay:10.37,2013-01-21 09:33:00,
2013-01-21 03:38:00,1.6,-9.5,30.32,WNW,292,4.6,4.6,59,0.00,CLR,,0.00,WeatherDisplay:10.37,2013-01-21 09:38:00,
2013-01-21 03:43:00,1.8,-9.3,30.31,NW,315,8.1,8.7,59,0.00,CLR,,0.00,WeatherDisplay:10.37,2013-01-21 09:43:00,
2013-01-21 03:48:00,1.6,-9.5,30.31,NNW,338,8.1,8.1,59,0.00,CLR,,0.00,WeatherDisplay:10.37,2013-01-21 09:48:00,
2013-01-21 03:53:00,1.6,-9.5,30.31,NNW,338,8.1,8.1,59,0.00,CLR,,0.00,WeatherDisplay:10.37,2013-01-21 09:53:00,
2013-01-21 03:58:00,1.6,-9.5,30.31,NNW,338,6.9,6.9,59,0.00,CLR,,0.00,WeatherDisplay:10.37,2013-01-21 09:58:00,
2013-01-21 04:03:00,1.6,-9.5,30.31,NNW,338,4.6,5.2,59,0.00,CLR,,0.00,WeatherDisplay:10.37,2013-01-21 10:03:00,
2013-01-21 04:08:00,1.6,-9.5,30.31,NW,315,1.1,1.7,59,0.00,CLR,,0.00,WeatherDisplay:10.37,2013-01-21 10:08:00,
2013-01-21 04:13:00,1.6,-9.5,30.31,NNW,338,8.1,8.1,59,0.00,CLR,,0.00,WeatherDisplay:10.37,2013-01-21 10:13:00,
2013-01-21 04:18:00,1.4,-9.6,30.32,NNW,338,13.0,13.9,59,0.00,CLR,,0.00,WeatherDisplay:10.37,2013-01-21 10:18:00,
2013-01-21 04:23:00,1.2,-10.1,30.32,NNW,338,6.9,7.5,58,0.00,CLR,,0.00,WeatherDisplay:10.37,2013-01-21 10:23:00,
2013-01-21 04:28:00,1.2,-10.1,30.32,NNW,338,8.1,8.5,58,0.00,CLR,,0.00,WeatherDisplay:10.37,2013-01-21 10:28:00,
2013-01-21 04:33:00,1.0,-10.3,30.32,NW,315,4.9,5.2,58,0.00,CLR,,0.00,WeatherDisplay:10.37,2013-01-21 10:33:00,
2013-01-21 04:38:00,1.0,-10.3,30.32,NW,315,4.6,5.2,58,0.00,CLR,,0.00,WeatherDisplay:10.37,2013-01-21 10:38:00,
2013-01-21 04:43:00,1.0,-10.3,30.32,West,270,10.4,10.6,58,0.00,CLR,,0.00,WeatherDisplay:10.37,2013-01-21 10:43:00,
2013-01-21 04:48:00,1.0,-10.3,30.32,NW,315,0.3,0.3,58,0.00,CLR,,0.00,WeatherDisplay:10.37,2013-01-21 10:48:00,
2013-01-21 04:53:00,1.2,-10.1,30.32,NNW,338,7.8,7.8,58,0.00,CLR,,0.00,WeatherDisplay:10.37,2013-01-21 10:53:00,
2013-01-21 04:58:00,1.0,-10.3,30.32,NNW,338,8.1,8.5,58,0.00,CLR,,0.00,WeatherDisplay:10.37,2013-01-21 10:58:00,
2013-01-21 05:03:00,1.0,-10.3,30.32,NNW,338,8.1,8.1,58,0.00,CLR,,0.00,WeatherDisplay:10.37,2013-01-21 11:03:00,
2013-01-21 05:08:00,1.0,-10.3,30.32,NW,315,5.1,5.1,58,0.00,CLR,,0.00,WeatherDisplay:10.37,2013-01-21 11:08:00,
2013-01-21 05:13:00,1.0,-10.3,30.32,NNW,338,8.1,8.1,58,0.00,CLR,,0.00,WeatherDisplay:10.37,2013-01-21 11:13:00,
2013-01-21 05:18:00,0.9,-10.5,30.32,WNW,292,2.3,2.6,58,0.00,CLR,,0.00,WeatherDisplay:10.37,2013-01-21 11:18:00,
2013-01-21 05:23:00,0.5,-10.8,30.32,NNW,338,8.1,8.1,58,0.00,CLR,,0.00,WeatherDisplay:10.37,2013-01-21 11:23:00,
2013-01-21 05:28:00,0.0,-11.7,30.32,North,0,5.8,5.8,57,0.00,CLR,,0.00,WeatherDisplay:10.37,2013-01-21 11:28:00,
2013-01-21 05:33:00,-0.8,-12.7,30.33,North,0,5.8,5.8,56,0.00,CLR,,0.00,WeatherDisplay:10.37,2013-01-21 11:33:00,
2013-01-21 05:39:00,-1.3,-13.6,30.33,North,0,6.9,6.9,55,0.00,CLR,,0.00,WeatherDisplay:10.37,2013-01-21 11:39:00,
2013-01-21 05:44:00,-1.5,-14.1,30.33,NNW,338,6.9,6.9,54,0.00,CLR,,0.00,WeatherDisplay:10.37,2013-01-21 11:44:00,
2013-01-21 05:49:00,-1.5,-14.1,30.33,NNW,338,8.1,8.4,54,0.00,CLR,,0.00,WeatherDisplay:10.37,2013-01-21 11:49:00,
2013-01-21 05:54:00,-1.5,-14.1,30.33,NNW,338,7.0,7.5,54,0.00,CLR,,0.00,WeatherDisplay:10.37,2013-01-21 11:54:00,
2013-01-21 05:59:00,-1.8,-14.5,30.33,NNW,338,5.8,6.1,54,0.00,CLR,,0.00,WeatherDisplay:10.37,2013-01-21 11:59:00,
2013-01-21 06:04:00,-2.0,-14.6,30.33,North,0,0.0,0.3,54,0.00,CLR,,0.00,WeatherDisplay:10.37,2013-01-21 12:04:00,
2013-01-21 06:09:00,-2.2,-15.2,30.34,NNW,338,8.1,8.7,53,0.00,CLR,,0.00,WeatherDisplay:10.37,2013-01-21 12:09:00,
2013-01-21 06:14:00,-2.4,-15.7,30.34,NNW,338,6.9,7.2,52,0.00,CLR,,0.00,WeatherDisplay:10.37,2013-01-21 12:14:00,
2013-01-21 06:19:00,-2.6,-15.9,30.35,NNW,338,5.1,5.5,52,0.00,CLR,,0.00,WeatherDisplay:10.37,2013-01-21 12:19:00,
2013-01-21 06:24:00,-2.6,-15.5,30.34,NNW,338,6.9,7.2,53,0.00,CLR,,0.00,WeatherDisplay:10.37,2013-01-21 12:24:00,
2013-01-21 06:29:00,-2.7,-16.0,30.35,NNW,338,8.1,8.4,52,0.00,CLR,,0.00,WeatherDisplay:10.37,2013-01-21 12:29:00,
2013-01-21 06:34:00,-3.1,-16.8,30.35,NNW,338,6.9,7.8,51,0.00,CLR,,0.00,WeatherDisplay:10.37,2013-01-21 12:34:00,
2013-01-21 06:39:00,-3.3,-16.9,30.35,NNW,338,8.1,8.1,51,0.00,CLR,,0.00,WeatherDisplay:10.37,2013-01-21 12:39:00,
2013-01-21 06:44:00,-3.5,-17.5,30.35,NNW,338,8.1,8.1,50,0.00,CLR,,0.00,WeatherDisplay:10.37,2013-01-21 12:44:00,
2013-01-21 06:49:00,-3.8,-17.8,30.35,North,0,5.9,6.6,50,0.00,CLR,,0.00,WeatherDisplay:10.37,2013-01-21 12:49:00,
2013-01-21 06:54:00,-4.4,-18.7,30.35,NNW,338,3.5,3.5,49,0.00,CLR,,0.00,WeatherDisplay:10.37,2013-01-21 12:54:00,
2013-01-21 06:59:00,-4.7,-19.5,30.36,NW,315,4.6,4.6,48,0.00,CLR,,0.00,WeatherDisplay:10.37,2013-01-21 12:59:00,
2013-01-21 07:04:00,-5.1,-20.2,30.36,NNW,338,9.2,10.4,47,0.00,CLR,,0.00,WeatherDisplay:10.37,2013-01-21 13:04:00,
2013-01-21 07:09:00,-5.3,-20.4,30.36,NNW,338,8.1,8.1,47,0.00,CLR,,0.00,WeatherDisplay:10.37,2013-01-21 13:09:00,
2013-01-21 07:14:00,-5.6,-21.1,30.36,NW,315,10.4,11.0,46,0.00,CLR,,0.00,WeatherDisplay:10.37,2013-01-21 13:14:00,
2013-01-21 07:19:00,-6.0,-21.9,30.36,NW,315,6.9,7.4,45,0.00,CLR,,0.00,WeatherDisplay:10.37,2013-01-21 13:19:00,
2013-01-21 07:24:00,-6.3,-22.6,30.36,NNW,338,9.2,9.2,44,0.00,CLR,,0.00,WeatherDisplay:10.37,2013-01-21 13:24:00,
2013-01-21 07:29:00,-6.5,-22.8,30.36,NNW,338,9.2,9.5,44,0.00,CLR,,0.00,WeatherDisplay:10.37,2013-01-21 13:29:00,
2013-01-21 07:34:00,-6.9,-23.6,30.36,North,0,8.1,8.1,43,0.00,CLR,,0.00,WeatherDisplay:10.37,2013-01-21 13:34:00,
2013-01-21 07:39:00,-6.9,-23.1,30.36,NNW,338,6.9,6.9,44,0.00,CLR,,0.00,WeatherDisplay:10.37,2013-01-21 13:39:00,
2013-01-21 07:44:00,-6.9,-23.6,30.36,NNW,338,4.6,4.9,43,0.00,CLR,,0.00,WeatherDisplay:10.37,2013-01-21 13:44:00,
2013-01-21 07:49:00,-6.3,-22.6,30.36,NNW,338,5.8,6.7,44,0.00,CLR,,0.00,WeatherDisplay:10.37,2013-01-21 13:49:00,
2013-01-21 07:54:00,-5.3,-20.8,30.36,NNW,338,5.8,6.4,46,0.00,CLR,,0.00,WeatherDisplay:10.37,2013-01-21 13:54:00,
2013-01-21 07:59:00,-4.7,-19.1,30.36,WNW,292,2.7,2.9,49,0.00,CLR,,0.00,WeatherDisplay:10.37,2013-01-21 13:59:00,
2013-01-21 08:04:00,-2.0,-15.4,30.38,NNW,338,3.8,3.9,52,0.00,CLR,,0.00,WeatherDisplay:10.37,2013-01-21 14:04:00,
2013-01-21 08:09:00,-0.8,-13.8,30.38,NW,315,0.0,0.0,53,0.00,CLR,,0.00,WeatherDisplay:10.37,2013-01-21 14:09:00,
2013-01-21 08:14:00,0.0,-13.1,30.38,NNW,338,0.0,0.0,53,0.00,CLR,,0.00,WeatherDisplay:10.37,2013-01-21 14:14:00,
2013-01-21 08:19:00,1.8,-11.8,30.38,NNW,338,5.1,5.1,52,0.00,CLR,,0.00,WeatherDisplay:10.37,2013-01-21 14:19:00,
2013-01-21 08:24:00,1.6,-13.2,30.38,NNW,338,7.0,7.5,49,0.00,CLR,,0.00,WeatherDisplay:10.37,2013-01-21 14:24:00,
2013-01-21 08:29:00,1.0,-15.0,30.38,NNW,338,0.0,0.0,46,0.00,CLR,,0.00,WeatherDisplay:10.37,2013-01-21 14:29:00,
2013-01-21 08:34:00,1.4,-15.5,30.38,WNW,292,3.5,4.1,44,0.00,CLR,,0.00,WeatherDisplay:10.37,2013-01-21 14:34:00,
2013-01-21 08:39:00,1.2,-18.0,30.38,NW,315,6.9,6.9,39,0.00,CLR,,0.00,WeatherDisplay:10.37,2013-01-21 14:39:00,
2013-01-21 08:44:00,0.9,-21.6,30.38,NNW,338,5.8,6.4,33,0.00,CLR,,0.00,WeatherDisplay:10.37,2013-01-21 14:44:00,
2013-01-21 08:49:00,0.3,-22.1,30.38,North,0,5.8,5.8,33,0.00,CLR,,0.00,WeatherDisplay:10.37,2013-01-21 14:49:00,
2013-01-21 08:54:00,0.3,-22.1,30.38,WNW,292,5.8,5.8,33,0.00,CLR,,0.00,WeatherDisplay:10.37,2013-01-21 14:54:00,
2013-01-21 08:59:00,0.3,-22.1,30.38,NNW,338,5.8,6.0,33,0.00,CLR,,0.00,WeatherDisplay:10.37,2013-01-21 14:59:00,
2013-01-21 09:04:00,0.3,-22.1,30.38,NNW,338,2.3,2.4,33,0.00,CLR,,0.00,WeatherDisplay:10.37,2013-01-21 15:04:00,
2013-01-21 09:09:00,0.0,-22.4,30.38,NNW,338,6.9,7.8,33,0.00,CLR,,0.00,WeatherDisplay:10.37,2013-01-21 15:09:00,
2013-01-21 09:14:00,-0.2,-22.5,30.38,NNW,338,1.4,1.7,33,0.00,CLR,,0.00,WeatherDisplay:10.37,2013-01-21 15:14:00,
2013-01-21 09:19:00,-0.8,-23.0,30.38,NNW,338,8.1,8.1,33,0.00,CLR,,0.00,WeatherDisplay:10.37,2013-01-21 15:19:00,
2013-01-21 09:24:00,-0.9,-23.2,30.38,NNW,338,8.1,8.1,33,0.00,CLR,,0.00,WeatherDisplay:10.37,2013-01-21 15:24:00,
2013-01-21 09:29:00,-0.9,-23.2,30.38,NNW,338,7.0,7.0,33,0.00,CLR,,0.00,WeatherDisplay:10.37,2013-01-21 15:29:00,
2013-01-21 09:34:00,-0.8,-23.0,30.38,NNW,338,8.1,8.1,33,0.00,CLR,,0.00,WeatherDisplay:10.37,2013-01-21 15:34:00,
2013-01-21 09:39:00,-0.6,-22.9,30.39,NNW,338,4.6,4.9,33,0.00,CLR,,0.00,WeatherDisplay:10.37,2013-01-21 15:39:00,
2013-01-21 09:44:00,-0.8,-23.0,30.39,NNW,338,6.9,6.9,33,0.00,CLR,,0.00,WeatherDisplay:10.37,2013-01-21 15:44:00,
2013-01-21 09:49:00,-0.2,-22.5,30.39,NNW,338,6.9,6.9,33,0.00,CLR,,0.00,WeatherDisplay:10.37,2013-01-21 15:49:00,
2013-01-21 09:54:00,0.0,-21.8,30.40,NNW,338,6.9,6.9,34,0.00,CLR,,0.00,WeatherDisplay:10.37,2013-01-21 15:54:00,
2013-01-21 09:59:00,0.5,-19.7,30.40,NNW,338,6.9,7.3,37,0.00,CLR,,0.00,WeatherDisplay:10.37,2013-01-21 15:59:00,
2013-01-21 10:04:00,0.9,-18.4,30.39,WNW,292,2.3,2.8,39,0.00,CLR,,0.00,WeatherDisplay:10.37,2013-01-21 16:04:00,
2013-01-21 10:09:00,1.6,-16.3,30.39,NNW,338,3.5,3.8,42,0.00,CLR,,0.00,WeatherDisplay:10.37,2013-01-21 16:09:00,
2013-01-21 10:14:00,2.3,-14.7,30.40,NNW,338,10.4,10.4,44,0.00,CLR,,0.00,WeatherDisplay:10.37,2013-01-21 16:14:00,
2013-01-21 10:19:00,2.8,-13.7,30.39,NNW,338,6.9,6.9,45,0.00,CLR,,0.00,WeatherDisplay:10.37,2013-01-21 16:19:00,
2013-01-21 10:24:00,3.2,-13.9,30.39,NNW,338,6.9,7.5,44,0.00,CLR,,0.00,WeatherDisplay:10.37,2013-01-21 16:24:00,
2013-01-21 10:29:00,3.0,-14.9,30.39,North,0,8.1,8.1,42,0.00,CLR,,0.00,WeatherDisplay:10.37,2013-01-21 16:29:00,
2013-01-21 10:34:00,2.8,-16.1,30.39,NNW,338,8.1,8.1,40,0.00,CLR,,0.00,WeatherDisplay:10.37,2013-01-21 16:34:00,
2013-01-21 10:39:00,3.4,-15.6,30.38,NNW,338,6.9,7.2,40,0.00,CLR,,0.00,WeatherDisplay:10.37,2013-01-21 16:39:00,
2013-01-21 10:44:00,3.0,-16.9,30.39,NNW,338,7.3,7.3,38,0.00,CLR,,0.00,WeatherDisplay:10.37,2013-01-21 16:44:00,
2013-01-21 10:49:00,3.0,-18.0,30.38,NNW,338,8.1,8.1,36,0.00,CLR,,0.00,WeatherDisplay:10.37,2013-01-21 16:49:00,
2013-01-21 10:54:00,3.6,-15.9,30.38,NNW,338,6.2,6.7,39,0.00,CLR,,0.00,WeatherDisplay:10.37,2013-01-21 16:54:00,
2013-01-21 10:59:00,4.1,-14.9,30.38,NNW,338,6.9,6.9,40,0.00,CLR,,0.00,WeatherDisplay:10.37,2013-01-21 16:59:00,
2013-01-21 11:04:00,5.0,-12.2,30.38,NNW,338,8.1,8.4,44,0.00,CLR,,0.00,WeatherDisplay:10.37,2013-01-21 17:04:00,
2013-01-21 11:09:00,5.5,-11.3,30.38,NW,315,3.5,3.5,45,0.00,CLR,,0.00,WeatherDisplay:10.37,2013-01-21 17:09:00,
2013-01-21 11:14:00,5.9,-11.4,30.38,NW,315,1.1,1.1,44,0.00,CLR,,0.00,WeatherDisplay:10.37,2013-01-21 17:14:00,
2013-01-21 11:19:00,6.4,-10.9,30.38,West,270,8.1,0.0,44,0.00,CLR,,0.00,WeatherDisplay:10.37,2013-01-21 17:19:00,
2013-01-21 11:24:00,6.8,-10.5,30.38,West,270,5.8,6.7,44,0.00,CLR,,0.00,WeatherDisplay:10.37,2013-01-21 17:24:00,
2013-01-21 11:29:00,7.2,-13.2,30.38,NW,315,6.9,6.9,38,0.00,CLR,,0.00,WeatherDisplay:10.37,2013-01-21 17:29:00,
2013-01-21 11:34:00,7.0,-16.1,30.38,NNW,338,6.9,7.2,33,0.00,CLR,,0.00,WeatherDisplay:10.37,2013-01-21 17:34:00,
2013-01-21 11:39:00,7.0,-16.1,30.38,NW,315,4.6,5.4,33,0.00,CLR,,0.00,WeatherDisplay:10.37,2013-01-21 17:39:00,
2013-01-21 11:44:00,7.2,-16.0,30.38,NNW,338,6.9,7.8,33,0.00,CLR,,0.00,WeatherDisplay:10.37,2013-01-21 17:44:00,
2013-01-21 11:49:00,7.2,-16.0,30.38,NNW,338,4.6,4.6,33,0.00,CLR,,0.00,WeatherDisplay:10.37,2013-01-21 17:49:00,
2013-01-21 11:54:00,7.5,-15.6,30.38,NW,315,6.9,7.2,33,0.00,CLR,,0.00,WeatherDisplay:10.37,2013-01-21 17:54:00,
2013-01-21 11:59:00,8.1,-15.2,30.38,NNW,338,6.9,6.9,33,0.00,CLR,,0.00,WeatherDisplay:10.37,2013-01-21 17:59:00,
2013-01-21 12:04:00,8.2,-15.0,30.36,NW,315,5.9,6.4,33,0.00,CLR,,0.00,WeatherDisplay:10.37,2013-01-21 18:04:00,
2013-01-21 12:09:00,8.8,-14.5,30.36,NNW,338,8.1,8.1,33,0.00,CLR,,0.00,WeatherDisplay:10.37,2013-01-21 18:09:00,
2013-01-21 12:14:00,8.8,-14.5,30.35,NNW,338,6.9,7.1,33,0.00,CLR,,0.00,WeatherDisplay:10.37,2013-01-21 18:14:00,
2013-01-21 12:19:00,9.0,-14.4,30.35,NNW,338,9.2,9.8,33,0.00,CLR,,0.00,WeatherDisplay:10.37,2013-01-21 18:19:00,
2013-01-21 12:24:00,9.5,-13.9,30.35,NNW,338,5.8,6.8,33,0.00,CLR,,0.00,WeatherDisplay:10.37,2013-01-21 18:24:00,
2013-01-21 12:29:00,9.7,-13.7,30.34,WNW,292,6.9,6.9,33,0.00,CLR,,0.00,WeatherDisplay:10.37,2013-01-21 18:29:00,
2013-01-21 12:34:00,9.5,-13.9,30.34,North,0,2.3,2.3,33,0.00,CLR,,0.00,WeatherDisplay:10.37,2013-01-21 18:34:00,
2013-01-21 12:39:00,9.5,-13.9,30.34,WNW,292,4.6,5.1,33,0.00,CLR,,0.00,WeatherDisplay:10.37,2013-01-21 18:39:00,
2013-01-21 12:44:00,10.0,-13.4,30.34,NNW,338,6.9,7.8,33,0.00,CLR,,0.00,WeatherDisplay:10.37,2013-01-21 18:44:00,
2013-01-21 12:49:00,10.6,-12.9,30.34,NW,315,3.5,3.5,33,0.00,CLR,,0.00,WeatherDisplay:10.37,2013-01-21 18:49:00,
2013-01-21 12:54:00,11.1,-12.4,30.33,NNW,338,12.7,12.7,33,0.00,CLR,,0.00,WeatherDisplay:10.37,2013-01-21 18:54:00,
2013-01-21 12:59:00,11.3,-12.3,30.33,WNW,292,8.1,8.1,33,0.00,CLR,,0.00,WeatherDisplay:10.37,2013-01-21 18:59:00,
2013-01-21 13:04:00,11.5,-12.1,30.33,NW,315,0.0,0.0,33,0.00,CLR,,0.00,WeatherDisplay:10.37,2013-01-21 19:04:00,
2013-01-21 13:09:00,11.1,-12.4,30.34,WNW,292,6.9,10.0,33,0.00,CLR,,0.00,WeatherDisplay:10.37,2013-01-21 19:09:00,
2013-01-21 13:14:00,10.8,-12.8,30.33,NW,315,9.2,9.2,33,0.00,CLR,,0.00,WeatherDisplay:10.37,2013-01-21 19:14:00,
2013-01-21 13:19:00,10.6,-12.9,30.33,NW,315,5.9,6.4,33,0.00,CLR,,0.00,WeatherDisplay:10.37,2013-01-21 19:19:00,
2013-01-21 13:24:00,10.9,-12.6,30.33,NW,315,3.5,4.2,33,0.00,CLR,,0.00,WeatherDisplay:10.37,2013-01-21 19:24:00,
2013-01-21 13:29:00,10.6,-12.9,30.33,West,270,10.4,10.4,33,0.00,CLR,,0.00,WeatherDisplay:10.37,2013-01-21 19:29:00,
2013-01-21 13:34:00,10.4,-13.1,30.33,West,270,13.8,14.8,33,0.00,CLR,,0.00,WeatherDisplay:10.37,2013-01-21 19:34:00,
2013-01-21 13:39:00,10.6,-12.9,30.33,NW,315,9.2,9.2,33,0.00,CLR,,0.00,WeatherDisplay:10.37,2013-01-21 19:39:00,
2013-01-21 13:44:00,10.6,-12.9,30.33,WNW,292,3.5,3.5,33,0.00,CLR,,0.00,WeatherDisplay:10.37,2013-01-21 19:44:00,
2013-01-21 13:49:00,10.8,-12.8,30.33,West,270,8.1,8.4,33,0.00,CLR,,0.00,WeatherDisplay:10.37,2013-01-21 19:49:00,
2013-01-21 13:54:00,10.6,-12.9,30.33,NW,315,10.4,10.4,33,0.00,CLR,,0.00,WeatherDisplay:10.37,2013-01-21 19:54:00,
2013-01-21 13:59:00,10.6,-12.9,30.32,West,270,7.3,7.8,33,0.00,CLR,,0.00,WeatherDisplay:10.37,2013-01-21 19:59:00,
2013-01-21 14:04:00,11.1,-12.4,30.32,WSW,248,8.1,8.1,33,0.00,CLR,,0.00,WeatherDisplay:10.37,2013-01-21 20:04:00,
2013-01-21 14:09:00,11.5,-12.1,30.32,NW,315,8.1,8.3,33,0.00,CLR,,0.00,WeatherDisplay:10.37,2013-01-21 20:09:00,
2013-01-21 14:14:00,11.8,-11.8,30.32,WNW,292,1.6,1.7,33,0.00,CLR,,0.00,WeatherDisplay:10.37,2013-01-21 20:14:00,
2013-01-21 14:19:00,10.9,-12.6,30.32,WNW,292,10.4,10.4,33,0.00,CLR,,0.00,WeatherDisplay:10.37,2013-01-21 20:19:00,
2013-01-21 14:24:00,11.1,-12.4,30.32,WNW,292,6.9,6.9,33,0.00,CLR,,0.00,WeatherDisplay:10.37,2013-01-21 20:24:00,
2013-01-21 14:29:00,11.3,-12.3,30.32,West,270,9.2,9.3,33,0.00,CLR,,0.00,WeatherDisplay:10.37,2013-01-21 20:29:00,
2013-01-21 14:34:00,11.1,-12.4,30.32,WNW,292,6.2,6.2,33,0.00,CLR,,0.00,WeatherDisplay:10.37,2013-01-21 20:34:00,
2013-01-21 14:39:00,11.1,-12.4,30.32,WNW,292,9.2,9.5,33,0.00,CLR,,0.00,WeatherDisplay:10.37,2013-01-21 20:39:00,
2013-01-21 14:44:00,11.3,-12.3,30.31,NW,315,9.2,9.3,33,0.00,CLR,,0.00,WeatherDisplay:10.37,2013-01-21 20:44:00,
2013-01-21 14:49:00,11.3,-12.3,30.31,West,270,7.0,7.0,33,0.00,CLR,,0.00,WeatherDisplay:10.37,2013-01-21 20:49:00,
2013-01-21 14:54:00,11.1,-12.4,30.31,West,270,8.1,8.4,33,0.00,CLR,,0.00,WeatherDisplay:10.37,2013-01-21 20:54:00,
2013-01-21 14:59:00,11.1,-12.4,30.31,WNW,292,4.6,4.9,33,0.00,CLR,,0.00,WeatherDisplay:10.37,2013-01-21 20:59:00,
2013-01-21 15:04:00,11.3,-12.3,30.31,NW,315,5.8,5.8,33,0.00,CLR,,0.00,WeatherDisplay:10.37,2013-01-21 21:04:00,
2013-01-21 15:09:00,11.1,-12.4,30.32,WNW,292,8.1,8.1,33,0.00,CLR,,0.00,WeatherDisplay:10.37,2013-01-21 21:09:00,
2013-01-21 15:14:00,10.9,-12.6,30.32,West,270,8.1,8.4,33,0.00,CLR,,0.00,WeatherDisplay:10.37,2013-01-21 21:14:00,
2013-01-21 15:19:00,10.9,-12.6,30.31,WNW,292,9.2,9.2,33,0.00,CLR,,0.00,WeatherDisplay:10.37,2013-01-21 21:19:00,
2013-01-21 15:24:00,10.6,-12.9,30.31,West,270,9.2,9.2,33,0.00,CLR,,0.00,WeatherDisplay:10.37,2013-01-21 21:24:00,
2013-01-21 15:29:00,10.4,-13.1,30.32,West,270,1.1,1.4,33,0.00,CLR,,0.00,WeatherDisplay:10.37,2013-01-21 21:29:00,
2013-01-21 15:34:00,10.4,-13.1,30.32,NW,315,6.9,6.9,33,0.00,CLR,,0.00,WeatherDisplay:10.37,2013-01-21 21:34:00,
2013-01-21 15:39:00,10.4,-13.1,30.32,WNW,292,9.2,0.0,33,0.00,CLR,,0.00,WeatherDisplay:10.37,2013-01-21 21:39:00,
2013-01-21 15:44:00,10.8,-12.8,30.32,West,270,4.9,5.2,33,0.00,CLR,,0.00,WeatherDisplay:10.37,2013-01-21 21:44:00,
2013-01-21 15:49:00,10.8,-12.8,30.32,WNW,292,5.7,5.7,33,0.00,CLR,,0.00,WeatherDisplay:10.37,2013-01-21 21:49:00,
2013-01-21 15:54:00,10.6,-12.9,30.32,West,270,10.4,11.0,33,0.00,CLR,,0.00,WeatherDisplay:10.37,2013-01-21 21:54:00,
2013-01-21 15:59:00,9.3,-14.0,30.32,West,270,6.8,6.8,33,0.00,CLR,,0.00,WeatherDisplay:10.37,2013-01-21 21:59:00,
2013-01-21 16:04:00,9.3,-14.0,30.31,NW,315,4.6,4.6,33,0.00,CLR,,0.00,WeatherDisplay:10.37,2013-01-21 22:04:00,
2013-01-21 16:09:00,9.0,-14.4,30.31,NW,315,5.8,5.8,33,0.00,CLR,,0.00,WeatherDisplay:10.37,2013-01-21 22:09:00,
2013-01-21 16:14:00,9.0,-14.4,30.31,WNW,292,5.8,6.5,33,0.00,CLR,,0.00,WeatherDisplay:10.37,2013-01-21 22:14:00,
2013-01-21 16:19:00,9.0,-14.4,30.31,NW,315,5.8,5.8,33,0.00,CLR,,0.00,WeatherDisplay:10.37,2013-01-21 22:19:00,
2013-01-21 16:24:00,8.8,-14.5,30.31,NW,315,1.1,1.4,33,0.00,CLR,,0.00,WeatherDisplay:10.37,2013-01-21 22:24:00,
2013-01-21 16:29:00,8.8,-14.5,30.31,NW,315,0.0,0.0,33,0.00,CLR,,0.00,WeatherDisplay:10.37,2013-01-21 22:29:00,
2013-01-21 16:34:00,8.4,-14.8,30.31,NNW,338,1.9,1.9,33,0.00,CLR,,0.00,WeatherDisplay:10.37,2013-01-21 22:34:00,
2013-01-21 16:39:00,8.4,-14.8,30.31,WNW,292,6.9,6.9,33,0.00,CLR,,0.00,WeatherDisplay:10.37,2013-01-21 22:39:00,
2013-01-21 16:44:00,8.2,-14.4,30.31,West,270,9.7,9.7,34,0.00,CLR,,0.00,WeatherDisplay:10.37,2013-01-21 22:44:00,
2013-01-21 16:49:00,8.1,-15.2,30.31,NW,315,0.0,0.0,33,0.00,CLR,,0.00,WeatherDisplay:10.37,2013-01-21 22:49:00,
2013-01-21 16:54:00,7.7,-15.5,30.31,WNW,292,5.8,6.1,33,0.00,CLR,,0.00,WeatherDisplay:10.37,2013-01-21 22:54:00,
2013-01-21 16:59:00,7.5,-15.6,30.31,NNW,338,0.0,0.0,33,0.00,CLR,,0.00,WeatherDisplay:10.37,2013-01-21 22:59:00,
2013-01-21 17:04:00,7.3,-15.2,30.31,WNW,292,7.0,7.5,34,0.00,CLR,,0.00,WeatherDisplay:10.37,2013-01-21 23:04:00,
2013-01-21 17:09:00,7.0,-16.1,30.31,WNW,292,3.5,3.5,33,0.00,CLR,,0.00,WeatherDisplay:10.37,2013-01-21 23:09:00,
2013-01-21 17:14:00,6.8,-16.3,30.31,West,270,5.8,5.8,33,0.00,CLR,,0.00,WeatherDisplay:10.37,2013-01-21 23:14:00,
2013-01-21 17:19:00,6.1,-16.9,30.31,WNW,292,8.1,8.1,33,0.00,CLR,,0.00,WeatherDisplay:10.37,2013-01-21 23:19:00,
2013-01-21 17:24:00,5.9,-17.1,30.31,NW,315,4.9,5.2,33,0.00,CLR,,0.00,WeatherDisplay:10.37,2013-01-21 23:24:00,
2013-01-21 17:29:00,5.4,-17.6,30.31,WNW,292,0.0,0.0,33,0.00,CLR,,0.00,WeatherDisplay:10.37,2013-01-21 23:29:00,
2013-01-21 17:34:00,5.2,-17.7,30.31,WNW,292,1.1,0.0,33,0.00,CLR,,0.00,WeatherDisplay:10.37,2013-01-21 23:34:00,
2013-01-21 17:39:00,5.0,-17.3,30.31,WNW,292,1.1,1.1,34,0.00,CLR,,0.00,WeatherDisplay:10.37,2013-01-21 23:39:00,
2013-01-21 17:44:00,4.6,-17.6,30.31,WNW,292,5.4,5.4,34,0.00,CLR,,0.00,WeatherDisplay:10.37,2013-01-21 23:44:00,
2013-01-21 17:49:00,4.3,-18.0,30.31,WNW,292,5.8,5.8,34,0.00,CLR,,0.00,WeatherDisplay:10.37,2013-01-21 23:49:00,
2013-01-21 17:54:00,4.1,-18.1,30.31,West,270,6.9,7.5,34,0.00,CLR,,0.00,WeatherDisplay:10.37,2013-01-21 23:54:00,
2013-01-21 17:59:00,3.7,-17.3,30.31,West,270,3.5,3.5,36,0.00,CLR,,0.00,WeatherDisplay:10.37,2013-01-21 23:59:00,
2013-01-21 18:04:00,3.6,-16.9,30.31,WNW,292,0.0,0.0,37,0.00,CLR,,0.00,WeatherDisplay:10.37,2013-01-22 00:04:00,
2013-01-21 18:09:00,3.4,-15.6,30.31,WNW,292,3.2,3.2,40,0.00,CLR,,0.00,WeatherDisplay:10.37,2013-01-22 00:09:00,
2013-01-21 18:14:00,3.2,-15.7,30.31,WNW,292,3.5,3.5,40,0.00,CLR,,0.00,WeatherDisplay:10.37,2013-01-22 00:14:00,
2013-01-21 18:19:00,2.8,-15.6,30.31,WNW,292,2.3,2.3,41,0.00,CLR,,0.00,WeatherDisplay:10.37,2013-01-22 00:19:00,
2013-01-21 18:24:00,2.8,-15.1,30.31,NW,315,2.3,2.6,42,0.00,CLR,,0.00,WeatherDisplay:10.37,2013-01-22 00:24:00,
2013-01-21 18:29:00,2.8,-14.2,30.31,NW,315,0.0,0.0,44,0.00,CLR,,0.00,WeatherDisplay:10.37,2013-01-22 00:29:00,
2013-01-21 18:34:00,2.8,-14.2,30.31,West,270,0.0,0.0,44,0.00,CLR,,0.00,WeatherDisplay:10.37,2013-01-22 00:34:00,
2013-01-21 18:39:00,2.8,-13.7,30.32,WNW,292,0.0,0.0,45,0.00,CLR,,0.00,WeatherDisplay:10.37,2013-01-22 00:39:00,
2013-01-21 18:44:00,2.7,-13.5,30.32,NW,315,0.0,0.0,46,0.00,CLR,,0.00,WeatherDisplay:10.37,2013-01-22 00:44:00,
2013-01-21 18:49:00,2.7,-13.5,30.32,NW,315,0.0,0.0,46,0.00,CLR,,0.00,WeatherDisplay:10.37,2013-01-22 00:49:00,
2013-01-21 18:54:00,2.7,-13.0,30.32,NNW,338,0.0,0.0,47,0.00,CLR,,0.00,WeatherDisplay:10.37,2013-01-22 00:54:00,
2013-01-21 18:59:00,2.5,-12.8,30.32,NNW,338,2.3,2.3,48,0.00,CLR,,0.00,WeatherDisplay:10.37,2013-01-22 00:59:00,
2013-01-21 19:04:00,2.3,-12.9,30.32,NNW,338,0.0,0.0,48,0.00,CLR,,0.00,WeatherDisplay:10.37,2013-01-22 01:04:00,
2013-01-21 19:09:00,1.9,-13.3,30.32,NNW,338,0.5,0.5,48,0.00,CLR,,0.00,WeatherDisplay:10.37,2013-01-22 01:09:00,
2013-01-21 19:14:00,1.8,-13.4,30.32,NNW,338,0.0,0.0,48,0.00,CLR,,0.00,WeatherDisplay:10.37,2013-01-22 01:14:00,
2013-01-21 19:19:00,1.6,-13.6,30.32,NNW,338,1.1,1.1,48,0.00,CLR,,0.00,WeatherDisplay:10.37,2013-01-22 01:19:00,
2013-01-21 19:24:00,1.6,-13.2,30.32,NNW,338,0.0,0.0,49,0.00,CLR,,0.00,WeatherDisplay:10.37,2013-01-22 01:24:00,
2013-01-21 19:29:00,1.6,-13.2,30.32,WNW,292,0.0,0.0,49,0.00,CLR,,0.00,WeatherDisplay:10.37,2013-01-22 01:29:00,
2013-01-21 19:34:00,1.6,-13.2,30.32,WNW,292,2.4,2.6,49,0.00,CLR,,0.00,WeatherDisplay:10.37,2013-01-22 01:34:00,
2013-01-21 19:39:00,1.6,-12.8,30.32,WNW,292,3.5,3.5,50,0.00,CLR,,0.00,WeatherDisplay:10.37,2013-01-22 01:39:00,
2013-01-21 19:44:00,1.4,-13.0,30.32,WNW,292,3.5,3.5,50,0.00,CLR,,0.00,WeatherDisplay:10.37,2013-01-22 01:44:00,
2013-01-21 19:49:00,1.2,-13.1,30.32,WNW,292,0.0,0.0,50,0.00,CLR,,0.00,WeatherDisplay:10.37,2013-01-22 01:49:00,
2013-01-21 19:54:00,1.0,-13.3,30.33,WNW,292,0.0,0.0,50,0.00,CLR,,0.00,WeatherDisplay:10.37,2013-01-22 01:54:00,
2013-01-21 19:59:00,1.0,-12.9,30.33,WNW,292,2.3,2.3,51,0.00,CLR,,0.00,WeatherDisplay:10.37,2013-01-22 01:59:00,
2013-01-21 20:04:00,0.5,-13.4,30.33,WNW,292,2.7,2.9,51,0.00,CLR,,0.00,WeatherDisplay:10.37,2013-01-22 02:04:00,
2013-01-21 20:09:00,0.5,-13.4,30.32,WNW,292,1.1,1.1,51,0.00,CLR,,0.00,WeatherDisplay:10.37,2013-01-22 02:09:00,
2013-01-21 20:14:00,0.3,-13.6,30.32,WNW,292,0.0,0.0,51,0.00,CLR,,0.00,WeatherDisplay:10.37,2013-01-22 02:14:00,
2013-01-21 20:19:00,0.1,-13.7,30.32,WNW,292,0.0,0.0,51,0.00,CLR,,0.00,WeatherDisplay:10.37,2013-01-22 02:19:00,
2013-01-21 20:24:00,0.0,-13.5,30.32,WNW,292,0.0,0.0,52,0.00,CLR,,0.00,WeatherDisplay:10.37,2013-01-22 02:24:00,
2013-01-21 20:29:00,0.0,-13.5,30.32,WNW,292,0.0,0.0,52,0.00,CLR,,0.00,WeatherDisplay:10.37,2013-01-22 02:29:00,
2013-01-21 20:34:00,0.0,-13.5,30.33,WNW,292,0.0,0.0,52,0.00,CLR,,0.00,WeatherDisplay:10.37,2013-01-22 02:34:00,
2013-01-21 20:39:00,-0.2,-13.7,30.32,WNW,292,0.0,0.0,52,0.00,CLR,,0.00,WeatherDisplay:10.37,2013-01-22 02:39:00,
2013-01-21 20:44:00,-0.2,-13.3,30.32,WNW,292,0.0,0.0,53,0.00,CLR,,0.00,WeatherDisplay:10.37,2013-01-22 02:44:00,
2013-01-21 20:49:00,-0.6,-13.7,30.32,NW,315,0.0,0.0,53,0.00,CLR,,0.00,WeatherDisplay:10.37,2013-01-22 02:49:00,
2013-01-21 20:54:00,-0.8,-13.8,30.32,WNW,292,0.0,0.0,53,0.00,CLR,,0.00,WeatherDisplay:10.37,2013-01-22 02:54:00,
2013-01-21 20:59:00,-0.8,-13.8,30.32,WNW,292,3.5,3.8,53,0.00,CLR,,0.00,WeatherDisplay:10.37,2013-01-22 02:59:00,
2013-01-21 21:04:00,-0.8,-13.4,30.32,West,270,0.8,0.0,54,0.00,CLR,,0.00,WeatherDisplay:10.37,2013-01-22 03:04:00,
2013-01-21 21:09:00,-1.1,-13.8,30.32,West,270,0.0,0.0,54,0.00,CLR,,0.00,WeatherDisplay:10.37,2013-01-22 03:09:00,
2013-01-21 21:14:00,-1.3,-14.0,30.31,West,270,0.0,0.0,54,0.00,CLR,,0.00,WeatherDisplay:10.37,2013-01-22 03:14:00,
2013-01-21 21:19:00,-1.3,-14.0,30.31,WSW,248,0.0,0.0,54,0.00,CLR,,0.00,WeatherDisplay:10.37,2013-01-22 03:19:00,
2013-01-21 21:24:00,-1.5,-14.1,30.32,West,270,0.0,0.0,54,0.00,CLR,,0.00,WeatherDisplay:10.37,2013-01-22 03:24:00,
2013-01-21 21:29:00,-1.5,-14.1,30.32,West,270,0.0,0.0,54,0.00,CLR,,0.00,WeatherDisplay:10.37,2013-01-22 03:29:00,
2013-01-21 21:34:00,-1.8,-14.5,30.32,West,270,0.0,0.0,54,0.00,CLR,,0.00,WeatherDisplay:10.37,2013-01-22 03:34:00,
2013-01-21 21:39:00,-1.8,-14.5,30.33,WSW,248,0.0,0.0,54,0.00,CLR,,0.00,WeatherDisplay:10.37,2013-01-22 03:39:00,
2013-01-21 21:44:00,-2.0,-14.6,30.33,WSW,248,2.3,2.3,54,0.00,CLR,,0.00,WeatherDisplay:10.37,2013-01-22 03:44:00,
2013-01-21 21:49:00,-2.2,-15.2,30.33,West,270,2.3,2.3,53,0.00,CLR,,0.00,WeatherDisplay:10.37,2013-01-22 03:49:00,
2013-01-21 21:54:00,-2.0,-14.6,30.33,WSW,248,5.8,5.8,54,0.00,CLR,,0.00,WeatherDisplay:10.37,2013-01-22 03:54:00,
2013-01-21 21:59:00,-2.2,-14.8,30.33,WSW,248,7.3,7.8,54,0.00,CLR,,0.00,WeatherDisplay:10.37,2013-01-22 03:59:00,
2013-01-21 22:04:00,-2.2,-14.8,30.33,WSW,248,5.8,5.8,54,0.00,CLR,,0.00,WeatherDisplay:10.37,2013-01-22 04:04:00,
2013-01-21 22:09:00,-2.2,-14.8,30.33,WSW,248,3.5,3.5,54,0.00,CLR,,0.00,WeatherDisplay:10.37,2013-01-22 04:09:00,
2013-01-21 22:14:00,-2.2,-14.8,30.32,West,270,1.1,0.0,54,0.00,CLR,,0.00,WeatherDisplay:10.37,2013-01-22 04:14:00,
2013-01-21 22:19:00,-2.2,-14.8,30.32,West,270,0.0,0.0,54,0.00,CLR,,0.00,WeatherDisplay:10.37,2013-01-22 04:19:00,
2013-01-21 22:24:00,-2.2,-14.8,30.33,West,270,3.5,0.0,54,0.00,CLR,,0.00,WeatherDisplay:10.37,2013-01-22 04:24:00,
2013-01-21 22:29:00,-2.0,-14.6,30.33,West,270,0.0,0.0,54,0.00,CLR,,0.00,WeatherDisplay:10.37,2013-01-22 04:29:00,
2013-01-21 22:34:00,-2.0,-14.6,30.33,West,270,0.0,0.0,54,0.00,CLR,,0.00,WeatherDisplay:10.37,2013-01-22 04:34:00,
2013-01-21 22:39:00,-2.0,-14.6,30.33,West,270,0.0,0.0,54,0.00,CLR,,0.00,WeatherDisplay:10.37,2013-01-22 04:39:00,
2013-01-21 22:44:00,-2.4,-15.0,30.32,West,270,0.0,0.0,54,0.00,CLR,,0.00,WeatherDisplay:10.37,2013-01-22 04:44:00,
2013-01-21 22:49:00,-2.6,-15.1,30.33,West,270,1.4,1.4,54,0.00,CLR,,0.00,WeatherDisplay:10.37,2013-01-22 04:49:00,
2013-01-21 22:54:00,-2.4,-14.6,30.33,West,270,0.0,0.0,55,0.00,CLR,,0.00,WeatherDisplay:10.37,2013-01-22 04:54:00,
2013-01-21 22:59:00,-2.0,-14.3,30.33,West,270,2.3,2.3,55,0.00,CLR,,0.00,WeatherDisplay:10.37,2013-01-22 04:59:00,
2013-01-21 23:01:00,-2.0,-14.3,30.33,West,270,0.0,0.0,55,0.00,CLR,,0.00,WeatherDisplay:10.37,2013-01-22 05:01:00,
2013-01-21 23:06:00,-2.0,-14.3,30.32,West,270,0.0,0.0,55,0.00,CLR,,0.00,WeatherDisplay:10.37,2013-01-22 05:06:00,
2013-01-21 23:11:00,-2.0,-14.3,30.32,West,270,0.0,0.0,55,0.00,CLR,,0.00,WeatherDisplay:10.37,2013-01-22 05:11:00,
2013-01-21 23:16:00,-2.0,-14.3,30.32,West,270,1.1,1.1,55,0.00,CLR,,0.00,WeatherDisplay:10.37,2013-01-22 05:16:00,
2013-01-21 23:21:00,-2.0,-14.3,30.32,WNW,292,2.3,2.3,55,0.00,CLR,,0.00,WeatherDisplay:10.37,2013-01-22 05:21:00,
2013-01-21 23:26:00,-1.8,-13.7,30.32,WNW,292,0.0,0.0,56,0.00,CLR,,0.00,WeatherDisplay:10.37,2013-01-22 05:26:00,
2013-01-21 23:31:00,-1.8,-13.7,30.32,NNW,338,0.0,0.0,56,0.00,CLR,,0.00,WeatherDisplay:10.37,2013-01-22 05:31:00,
2013-01-21 23:36:00,-1.5,-13.0,30.32,WNW,292,0.0,0.0,57,0.00,CLR,,0.00,WeatherDisplay:10.37,2013-01-22 05:36:00,
2013-01-21 23:41:00,-1.3,-12.9,30.32,WNW,292,0.0,0.0,57,0.00,CLR,,0.00,WeatherDisplay:10.37,2013-01-22 05:41:00,
2013-01-21 23:46:00,-0.9,-12.5,30.32,NW,315,1.6,1.6,57,0.00,CLR,,0.00,WeatherDisplay:10.37,2013-01-22 05:46:00,
2013-01-21 23:51:00,-0.8,-12.0,30.32,WNW,292,0.0,0.0,58,0.00,CLR,,0.00,WeatherDisplay:10.37,2013-01-22 05:51:00,
2013-01-21 23:56:00,-0.6,-11.8,30.31,WNW,292,0.0,0.0,58,0.00,CLR,,0.00,WeatherDisplay:10.37,2013-01-22 05:56:00,